createdAt,value
2022-10-18T00:00:05.926Z,22.70
2022-10-18T00:02:32.440Z,18.70
2022-10-18T00:04:58.888Z,20.47
2022-10-18T00:07:25.295Z,19.40
2022-10-18T00:09:51.681Z,22.85
2022-10-18T00:12:18.119Z,21.58
2022-10-18T00:14:44.513Z,24.48
2022-10-18T00:17:10.864Z,18.93
2022-10-18T00:19:37.319Z,20.42
2022-10-18T00:22:03.685Z,20.00
2022-10-18T00:24:30.042Z,18.13
2022-10-18T00:26:56.421Z,17.58
2022-10-18T00:29:22.839Z,20.77
2022-10-18T00:31:49.265Z,21.08
2022-10-18T00:34:16.756Z,19.30
2022-10-18T00:36:44.393Z,18.20
2022-10-18T00:39:16.729Z,20.25
2022-10-18T00:41:43.681Z,19.60
2022-10-18T00:44:12.845Z,17.40
2022-10-18T00:46:42.390Z,15.95
2022-10-18T00:49:16.407Z,16.17
2022-10-18T00:51:46.498Z,17.83
2022-10-18T00:54:14.672Z,22.33
2022-10-18T00:56:41.519Z,20.33
2022-10-18T00:59:08.250Z,21.33
2022-10-18T01:01:34.681Z,20.67
2022-10-18T01:04:01.307Z,17.65
2022-10-18T01:06:28.887Z,17.83
2022-10-18T01:09:16.201Z,19.63
2022-10-18T01:11:45.329Z,18.95
2022-10-18T01:14:30.093Z,21.25
2022-10-18T01:17:03.914Z,19.85
2022-10-18T01:19:52.768Z,18.73
2022-10-18T01:25:43.035Z,17.67
2022-10-18T01:28:15.599Z,20.63
2022-10-18T01:30:51.446Z,18.65
2022-10-18T01:33:32.043Z,18.58
2022-10-18T01:36:05.794Z,16.63
2022-10-18T01:38:34.601Z,16.95
2022-10-18T01:41:03.191Z,14.73
2022-10-18T01:43:31.649Z,18.13
2022-10-18T01:46:00.576Z,20.48
2022-10-18T01:48:27.161Z,18.05
2022-10-18T01:50:53.570Z,17.83
2022-10-18T01:53:31.611Z,16.87
2022-10-18T01:56:09.965Z,17.77
2022-10-18T01:58:56.945Z,18.50
2022-10-18T02:01:41.923Z,19.10
2022-10-18T02:04:42.107Z,18.23
2022-10-18T02:07:31.375Z,21.30
2022-10-18T02:10:10.837Z,22.60
2022-10-18T02:12:41.508Z,22.58
2022-10-18T02:15:09.739Z,20.23
2022-10-18T02:17:38.047Z,20.55
2022-10-18T02:20:08.742Z,21.57
2022-10-18T02:22:36.885Z,19.23
2022-10-18T02:25:09.759Z,21.48
2022-10-18T02:27:38.038Z,19.73
2022-10-18T02:30:05.610Z,20.20
2022-10-18T02:32:37.320Z,19.90
2022-10-18T02:35:09.885Z,19.45
2022-10-18T02:37:39.863Z,21.00
2022-10-18T02:40:09.009Z,21.20
2022-10-18T02:42:38.093Z,21.02
2022-10-18T02:45:06.297Z,22.73
2022-10-18T02:47:32.861Z,23.90
2022-10-18T02:49:59.538Z,21.35
2022-10-18T02:52:25.993Z,23.25
2022-10-18T02:54:52.402Z,23.17
2022-10-18T02:57:18.790Z,21.33
2022-10-18T02:59:45.164Z,21.92
2022-10-18T03:02:11.653Z,20.58
2022-10-18T03:04:38.020Z,21.30
2022-10-18T03:07:04.398Z,20.75
2022-10-18T03:09:30.804Z,20.83
2022-10-18T03:11:57.478Z,20.33
2022-10-18T03:14:23.876Z,20.75
2022-10-18T03:16:50.294Z,18.23
2022-10-18T03:19:16.742Z,18.95
2022-10-18T03:21:43.126Z,20.00
2022-10-18T03:24:09.559Z,19.20
2022-10-18T03:26:35.923Z,18.50
2022-10-18T03:29:02.446Z,17.98
2022-10-18T03:34:00.295Z,18.83
2022-10-18T03:36:26.655Z,18.88
2022-10-18T03:38:53.058Z,18.27
2022-10-18T03:41:19.431Z,17.95
2022-10-18T03:43:45.824Z,19.77
2022-10-18T03:46:12.540Z,19.87
2022-10-18T03:48:39.095Z,18.48
2022-10-18T03:51:05.575Z,23.70
2022-10-18T03:53:31.949Z,22.08
2022-10-18T03:55:58.476Z,21.33
2022-10-18T03:58:25.014Z,20.47
2022-10-18T04:00:53.009Z,21.90
2022-10-18T04:03:21.164Z,21.98
2022-10-18T04:05:48.415Z,20.60
2022-10-18T04:08:15.557Z,21.38
2022-10-18T04:10:42.198Z,20.43
2022-10-18T04:13:08.928Z,21.40
2022-10-18T04:15:35.364Z,20.83
2022-10-18T04:18:02.049Z,21.00
2022-10-18T04:20:28.558Z,22.90
2022-10-18T04:22:54.966Z,22.03
2022-10-18T04:25:22.162Z,23.88
2022-10-18T04:27:48.740Z,24.80
2022-10-18T04:30:15.287Z,22.17
2022-10-18T04:32:41.736Z,24.63
2022-10-18T04:35:09.458Z,24.90
2022-10-18T04:37:35.825Z,21.27
2022-10-18T04:40:02.717Z,21.02
2022-10-18T04:42:29.130Z,21.23
2022-10-18T04:44:55.517Z,21.25
2022-10-18T04:47:22.002Z,24.17
2022-10-18T04:49:48.352Z,21.15
2022-10-18T04:52:14.730Z,20.92
2022-10-18T04:54:41.090Z,22.63
2022-10-18T04:57:07.467Z,22.35
2022-10-18T04:59:33.892Z,21.00
2022-10-18T05:02:00.410Z,23.42
2022-10-18T05:04:26.896Z,22.88
2022-10-18T05:06:53.267Z,24.02
2022-10-18T05:09:19.666Z,24.05
2022-10-18T05:11:46.079Z,22.80
2022-10-18T05:14:12.514Z,25.23
2022-10-18T05:16:38.889Z,25.15
2022-10-18T05:19:05.875Z,21.73
2022-10-18T05:21:32.601Z,20.92
2022-10-18T05:23:58.986Z,22.07
2022-10-18T05:26:25.373Z,21.55
2022-10-18T05:28:51.839Z,22.15
2022-10-18T05:31:18.338Z,24.13
2022-10-18T05:33:44.724Z,23.05
2022-10-18T05:36:11.298Z,23.57
2022-10-18T05:38:42.102Z,22.20
2022-10-18T05:41:09.682Z,23.90
2022-10-18T05:43:36.078Z,21.13
2022-10-18T05:46:02.552Z,20.48
2022-10-18T05:48:28.940Z,21.70
2022-10-18T05:50:58.411Z,20.27
2022-10-18T05:53:36.334Z,21.13
2022-10-18T05:56:04.068Z,19.42
2022-10-18T05:58:30.644Z,21.40
2022-10-18T06:01:01.300Z,19.57
2022-10-18T06:03:27.957Z,20.10
2022-10-18T06:06:03.145Z,19.02
2022-10-18T06:08:30.075Z,18.92
2022-10-18T06:10:57.001Z,19.13
2022-10-18T06:13:23.675Z,21.10
2022-10-18T06:15:50.355Z,20.33
2022-10-18T06:18:16.785Z,19.40
2022-10-18T06:20:43.203Z,20.33
2022-10-18T06:23:09.623Z,19.38
2022-10-18T06:25:36.048Z,19.67
2022-10-18T06:28:06.011Z,18.17
2022-10-18T06:30:34.378Z,18.20
2022-10-18T06:33:01.290Z,18.48
2022-10-18T06:35:27.789Z,18.80
2022-10-18T06:37:54.148Z,19.40
2022-10-18T06:40:20.532Z,17.73
2022-10-18T06:42:55.202Z,18.55
2022-10-18T06:45:27.108Z,17.83
2022-10-18T06:47:53.504Z,19.23
2022-10-18T06:50:19.952Z,19.30
2022-10-18T06:52:46.301Z,19.73
2022-10-18T06:55:12.788Z,20.45
2022-10-18T06:57:39.234Z,18.88
2022-10-18T07:00:05.999Z,19.25
2022-10-18T07:02:32.532Z,20.83
2022-10-18T07:04:59.268Z,20.23
2022-10-18T07:07:25.700Z,17.42
2022-10-18T07:09:52.145Z,15.45
2022-10-18T07:12:18.531Z,15.60
2022-10-18T07:14:46.265Z,16.40
2022-10-18T07:17:12.683Z,15.45
2022-10-18T07:19:39.085Z,16.02
2022-10-18T07:22:05.458Z,15.98
2022-10-18T07:27:03.268Z,13.00
2022-10-18T07:29:29.728Z,15.65
2022-10-18T07:31:56.117Z,15.30
2022-10-18T07:34:22.521Z,15.75
2022-10-18T07:36:48.922Z,13.05
2022-10-18T07:39:16.284Z,14.43
2022-10-18T07:41:42.764Z,13.20
2022-10-18T07:44:09.141Z,14.43
2022-10-18T07:46:35.790Z,17.75
2022-10-18T07:49:02.200Z,14.05
2022-10-18T07:51:28.809Z,14.33
2022-10-18T07:53:55.182Z,12.13
2022-10-18T07:56:22.219Z,13.18
2022-10-18T07:58:53.732Z,11.88
2022-10-18T08:01:21.822Z,13.95
2022-10-18T08:03:48.971Z,14.67
2022-10-18T08:06:20.368Z,16.17
2022-10-18T08:08:46.909Z,15.63
2022-10-18T08:11:19.134Z,15.20
2022-10-18T08:13:46.360Z,15.23
2022-10-18T08:16:15.458Z,13.13
2022-10-18T08:18:42.422Z,13.13
2022-10-18T08:21:11.393Z,13.40
2022-10-18T08:23:39.194Z,13.63
2022-10-18T08:26:09.966Z,13.35
2022-10-18T08:28:37.173Z,11.60
2022-10-18T08:31:15.596Z,11.15
2022-10-18T08:33:41.951Z,11.50
2022-10-18T08:36:12.066Z,10.07
2022-10-18T08:38:40.457Z,9.98
2022-10-18T08:41:28.480Z,9.53
2022-10-18T08:44:13.709Z,8.95
2022-10-18T08:46:44.816Z,8.40
2022-10-18T08:49:26.733Z,8.10
2022-10-18T08:51:53.973Z,7.57
2022-10-18T08:55:02.525Z,7.47
2022-10-18T08:57:30.975Z,7.20
2022-10-18T08:59:57.579Z,7.57
2022-10-18T09:02:48.445Z,6.80
2022-10-18T09:05:33.916Z,6.15
2022-10-18T09:08:18.454Z,5.00
2022-10-18T09:11:07.810Z,5.28
2022-10-18T09:14:01.493Z,4.80
2022-10-18T09:16:51.960Z,4.50
2022-10-18T09:19:31.176Z,4.10
2022-10-18T09:22:15.842Z,4.07
2022-10-18T09:25:00.297Z,3.50
2022-10-18T09:27:49.186Z,3.83
2022-10-18T09:30:26.584Z,2.90
2022-10-18T09:33:06.256Z,3.08
2022-10-18T09:35:52.330Z,2.93
2022-10-18T09:38:26.717Z,3.40
2022-10-18T09:40:58.299Z,4.78
2022-10-18T09:43:42.251Z,8.23
2022-10-18T09:46:09.265Z,16.25
2022-10-18T09:49:04.434Z,24.63
2022-10-18T09:51:36.827Z,24.50
2022-10-18T09:54:24.586Z,18.60
2022-10-18T09:56:57.781Z,18.83
2022-10-18T09:59:39.784Z,18.38
2022-10-18T10:02:07.277Z,18.53
2022-10-18T10:04:33.747Z,15.40
2022-10-18T10:07:01.547Z,15.40
2022-10-18T10:09:41.417Z,19.52
2022-10-18T10:12:30.704Z,22.48
2022-10-18T10:15:16.756Z,19.70
2022-10-18T10:17:43.380Z,15.32
2022-10-18T10:20:21.456Z,17.65
2022-10-18T10:22:49.859Z,16.80
2022-10-18T10:25:23.364Z,16.30
2022-10-18T10:27:50.436Z,11.20
2022-10-18T10:30:30.141Z,11.05
2022-10-18T10:32:57.168Z,8.68
2022-10-18T10:35:53.231Z,11.70
2022-10-18T10:38:25.678Z,11.85
2022-10-18T10:40:52.775Z,10.37
2022-10-18T10:43:39.380Z,12.75
2022-10-18T10:46:12.913Z,10.50
2022-10-18T10:49:09.591Z,8.98
2022-10-18T10:51:42.092Z,7.20
2022-10-18T10:54:22.188Z,7.63
2022-10-18T10:57:00.416Z,8.63
2022-10-18T10:59:31.659Z,5.32
2022-10-18T11:02:26.026Z,3.72
2022-10-18T11:04:54.946Z,2.50
2022-10-18T11:07:36.476Z,2.03
2022-10-18T11:10:13.490Z,1.90
2022-10-18T11:12:49.147Z,1.80
2022-10-18T11:15:38.991Z,2.00
2022-10-18T11:18:19.000Z,1.50
2022-10-18T11:21:03.797Z,1.40
2022-10-18T11:23:35.499Z,1.60
2022-10-18T11:26:10.872Z,1.50
2022-10-18T11:28:56.077Z,1.30
2022-10-18T11:32:16.574Z,1.60
2022-10-18T11:34:42.913Z,1.40
2022-10-18T11:37:37.509Z,1.60
2022-10-18T11:40:23.545Z,1.80
2022-10-18T11:43:00.564Z,1.58
2022-10-18T11:45:49.879Z,1.63
2022-10-18T11:48:35.561Z,1.57
2022-10-18T11:51:13.072Z,1.70
2022-10-18T11:54:06.698Z,1.70
2022-10-18T11:57:15.589Z,1.60
2022-10-18T12:00:23.519Z,1.70
2022-10-18T12:03:14.326Z,1.50
2022-10-18T12:05:44.439Z,1.80
2022-10-18T12:08:21.312Z,1.75
2022-10-18T12:11:04.721Z,1.77
2022-10-18T12:13:41.078Z,1.70
2022-10-18T12:16:09.286Z,1.90
2022-10-18T12:18:45.591Z,2.03
2022-10-18T12:21:13.004Z,2.30
2022-10-18T12:23:50.928Z,2.20
2022-10-18T12:26:17.876Z,2.13
2022-10-18T12:29:02.836Z,2.47
2022-10-18T12:31:39.052Z,2.75
2022-10-18T12:34:23.537Z,2.42
2022-10-18T12:37:12.207Z,1.95
2022-10-18T12:40:08.723Z,2.30
2022-10-18T12:42:40.544Z,2.07
2022-10-18T12:45:19.756Z,1.70
2022-10-18T12:47:46.427Z,2.00
2022-10-18T12:50:28.144Z,2.00
2022-10-18T12:53:18.184Z,1.88
2022-10-18T12:55:50.247Z,1.70
2022-10-18T12:58:32.582Z,1.70
2022-10-18T13:01:01.196Z,1.63
2022-10-18T13:03:29.086Z,1.60
2022-10-18T13:06:00.721Z,1.70
2022-10-18T13:08:28.179Z,1.53
2022-10-18T13:11:09.912Z,1.80
2022-10-18T13:14:09.105Z,1.40
2022-10-18T13:16:57.141Z,1.30
2022-10-18T13:19:44.931Z,1.58
2022-10-18T13:22:25.492Z,2.00
2022-10-18T13:25:10.176Z,2.00
2022-10-18T13:27:44.616Z,1.88
2022-10-18T13:30:17.503Z,1.95
2022-10-18T13:32:58.734Z,1.80
2022-10-18T13:35:43.974Z,2.03
2022-10-18T13:38:31.760Z,1.85
2022-10-18T13:41:06.105Z,1.90
2022-10-18T13:43:54.147Z,2.00
2022-10-18T13:46:32.668Z,2.00
2022-10-18T13:49:05.253Z,1.93
2022-10-18T13:51:42.646Z,1.70
2022-10-18T13:54:18.256Z,2.00
2022-10-18T13:57:10.870Z,1.90
2022-10-18T13:59:55.998Z,1.75
2022-10-18T14:02:51.091Z,1.93
2022-10-18T14:05:27.254Z,1.60
2022-10-18T14:08:04.735Z,1.70
2022-10-18T14:11:02.088Z,1.67
2022-10-18T14:13:38.910Z,1.80
2022-10-18T14:16:29.806Z,1.37
2022-10-18T14:19:08.547Z,1.95
2022-10-18T14:21:39.943Z,1.50
2022-10-18T14:24:26.516Z,1.50
2022-10-18T14:27:11.443Z,1.60
2022-10-18T14:29:37.897Z,1.50
2022-10-18T14:32:09.231Z,1.48
2022-10-18T14:34:35.939Z,1.70
2022-10-18T14:37:02.415Z,1.40
2022-10-18T14:39:29.011Z,1.42
2022-10-18T14:41:57.065Z,1.60
2022-10-18T14:44:29.326Z,1.60
2022-10-18T14:46:55.689Z,1.50
2022-10-18T14:49:22.130Z,1.60
2022-10-18T14:51:52.270Z,1.42
2022-10-18T14:54:25.005Z,1.40
2022-10-18T14:56:54.167Z,1.58
2022-10-18T14:59:23.548Z,1.60
2022-10-18T15:02:02.647Z,1.50
2022-10-18T15:04:29.705Z,1.65
2022-10-18T15:06:56.478Z,1.67
2022-10-18T15:09:24.226Z,1.67
2022-10-18T15:11:51.714Z,1.90
2022-10-18T15:14:19.808Z,1.70
2022-10-18T15:16:47.345Z,1.70
2022-10-18T15:19:13.706Z,1.50
2022-10-18T15:21:59.130Z,1.70
2022-10-18T15:24:37.558Z,1.58
2022-10-18T15:27:20.810Z,1.77
2022-10-18T15:29:47.303Z,1.48
2022-10-18T15:32:30.583Z,1.40
2022-10-18T15:35:08.916Z,1.33
2022-10-18T15:37:47.115Z,1.77
2022-10-18T15:40:33.735Z,1.30
2022-10-18T15:43:03.128Z,1.20
2022-10-18T15:45:32.719Z,1.50
2022-10-18T15:48:08.308Z,1.67
2022-10-18T15:50:40.361Z,1.40
2022-10-18T15:53:21.923Z,1.92
2022-10-18T15:56:00.983Z,1.33
2022-10-18T15:58:35.167Z,1.43
2022-10-18T16:01:02.026Z,1.80
2022-10-18T16:03:28.700Z,1.65
2022-10-18T16:05:59.622Z,1.50
2022-10-18T16:08:29.820Z,1.90
2022-10-18T16:10:58.191Z,1.53
2022-10-18T16:13:25.469Z,1.40
2022-10-18T16:15:52.194Z,1.63
2022-10-18T16:18:20.170Z,1.30
2022-10-18T16:20:47.731Z,1.75
2022-10-18T16:23:16.191Z,1.40
2022-10-18T16:25:42.739Z,1.85
2022-10-18T16:28:14.035Z,1.60
2022-10-18T16:30:42.263Z,2.13
2022-10-18T16:33:08.639Z,1.70
2022-10-18T16:35:35.100Z,1.80
2022-10-18T16:38:01.871Z,1.48
2022-10-18T16:40:28.290Z,1.90
2022-10-18T16:42:55.093Z,1.63
2022-10-18T16:45:21.552Z,1.65
2022-10-18T16:47:47.973Z,1.70
2022-10-18T16:50:17.941Z,1.80
2022-10-18T16:52:44.357Z,1.73
2022-10-18T16:55:11.764Z,1.40
2022-10-18T16:57:38.134Z,1.60
2022-10-18T17:00:05.382Z,1.60
2022-10-18T17:02:32.121Z,1.70
2022-10-18T17:04:58.896Z,2.17
2022-10-18T17:07:25.420Z,1.92
2022-10-18T17:09:51.863Z,2.35
2022-10-18T17:12:18.254Z,2.73
2022-10-18T17:14:44.670Z,2.13
2022-10-18T17:17:12.376Z,1.60
2022-10-18T17:19:38.783Z,1.70
2022-10-18T17:22:05.166Z,2.00
2022-10-18T17:24:31.625Z,1.83
2022-10-18T17:26:58.115Z,1.60
2022-10-18T17:29:24.495Z,2.10
2022-10-18T17:31:50.970Z,1.60
2022-10-18T17:34:20.947Z,1.83
2022-10-18T17:36:47.901Z,1.70
2022-10-18T17:39:14.384Z,1.92
2022-10-18T17:41:40.818Z,1.92
2022-10-18T17:44:07.236Z,2.08
2022-10-18T17:46:33.771Z,1.95
2022-10-18T17:49:00.410Z,1.60
2022-10-18T17:51:26.846Z,1.60
2022-10-18T17:53:53.915Z,1.73
2022-10-18T17:56:20.398Z,1.73
2022-10-18T17:58:50.899Z,1.60
2022-10-18T18:01:20.477Z,1.60
2022-10-18T18:03:47.468Z,1.58
2022-10-18T18:06:28.946Z,1.90
2022-10-18T18:08:55.386Z,1.85
2022-10-18T18:11:21.788Z,2.00
2022-10-18T18:13:48.206Z,2.00
2022-10-18T18:16:23.857Z,1.80
2022-10-18T18:18:56.122Z,2.10
2022-10-18T18:21:23.310Z,2.00
2022-10-18T18:23:50.384Z,2.40
2022-10-18T18:26:21.794Z,2.10
2022-10-18T18:28:48.582Z,1.95
2022-10-18T18:31:20.805Z,2.33
2022-10-18T18:33:47.218Z,1.90
2022-10-18T18:36:13.636Z,2.30
2022-10-18T18:38:40.778Z,2.60
2022-10-18T18:41:11.857Z,2.30
2022-10-18T18:43:41.017Z,2.30
2022-10-18T18:46:08.710Z,2.38
2022-10-18T18:48:36.357Z,2.38
2022-10-18T18:51:04.624Z,2.40
2022-10-18T18:53:31.605Z,2.72
2022-10-18T18:56:06.337Z,3.47
2022-10-18T18:58:35.400Z,3.47
2022-10-18T19:01:29.984Z,3.65
2022-10-18T19:03:58.675Z,3.73
2022-10-18T19:06:30.473Z,3.45
2022-10-18T19:08:58.255Z,5.38
2022-10-18T19:11:24.691Z,4.85
2022-10-18T19:13:51.114Z,3.60
2022-10-18T19:16:40.182Z,3.67
2022-10-18T19:19:18.459Z,3.70
2022-10-18T19:21:56.683Z,3.58
2022-10-18T19:24:25.684Z,3.40
2022-10-18T19:26:57.767Z,3.85
2022-10-18T19:29:35.647Z,3.50
2022-10-18T19:32:04.899Z,3.80
2022-10-18T19:34:32.127Z,3.75
2022-10-18T19:36:58.586Z,3.20
2022-10-18T19:39:27.508Z,3.80
2022-10-18T19:41:56.178Z,3.20
2022-10-18T19:44:24.520Z,3.30
2022-10-18T19:46:50.992Z,3.25
2022-10-18T19:49:17.856Z,2.90
2022-10-18T19:51:44.710Z,2.70
2022-10-18T19:54:12.559Z,2.67
2022-10-18T19:56:39.787Z,2.60
2022-10-18T19:59:06.205Z,2.88
2022-10-18T20:01:33.153Z,2.70
2022-10-18T20:03:59.669Z,3.00
2022-10-18T20:06:26.450Z,2.70
2022-10-18T20:08:53.093Z,2.80
2022-10-18T20:11:22.864Z,2.95
2022-10-18T20:13:49.800Z,3.10
2022-10-18T20:16:17.858Z,3.17
2022-10-18T20:18:44.387Z,2.67
2022-10-18T20:21:13.451Z,3.00
2022-10-18T20:23:41.236Z,2.88
2022-10-18T20:26:15.467Z,3.08
2022-10-18T20:28:45.600Z,2.88
2022-10-18T20:31:14.394Z,3.07
2022-10-18T20:33:41.473Z,3.13
2022-10-18T20:36:15.894Z,3.70
2022-10-18T20:38:44.891Z,3.67
2022-10-18T20:41:17.308Z,3.90
2022-10-18T20:43:44.534Z,4.23
2022-10-18T20:46:11.541Z,3.60
2022-10-18T20:48:37.931Z,3.72
2022-10-18T20:51:06.656Z,4.05
2022-10-18T20:53:34.964Z,3.80
2022-10-18T20:56:09.089Z,3.83
2022-10-18T20:58:37.204Z,4.28
2022-10-18T21:01:07.573Z,3.97
2022-10-18T21:03:36.737Z,4.30
2022-10-18T21:06:12.638Z,4.70
2022-10-18T21:08:39.745Z,4.33
2022-10-18T21:11:06.730Z,4.65
2022-10-18T21:13:33.209Z,4.88
2022-10-18T21:16:00.997Z,4.40
2022-10-18T21:18:29.512Z,4.47
2022-10-18T21:21:05.988Z,4.60
2022-10-18T21:23:32.391Z,4.70
2022-10-18T21:25:58.810Z,5.00
2022-10-18T21:28:25.336Z,5.35
2022-10-18T21:30:51.769Z,4.97
2022-10-18T21:33:18.183Z,5.00
2022-10-18T21:35:44.528Z,5.20
2022-10-18T21:38:10.926Z,5.10
2022-10-18T21:40:37.805Z,5.90
2022-10-18T21:43:04.228Z,5.60
2022-10-18T21:45:30.669Z,5.40
2022-10-18T21:47:57.224Z,5.55
2022-10-18T21:50:23.669Z,5.50
2022-10-18T21:52:50.036Z,5.85
2022-10-18T21:55:16.472Z,6.25
2022-10-18T21:57:42.888Z,5.93
2022-10-18T22:00:10.027Z,5.63
2022-10-18T22:02:36.432Z,6.03
2022-10-18T22:05:03.828Z,5.80
2022-10-18T22:07:31.760Z,6.15
2022-10-18T22:09:58.356Z,6.03
2022-10-18T22:12:24.766Z,6.43
2022-10-18T22:14:51.163Z,6.55
2022-10-18T22:17:17.583Z,6.57
2022-10-18T22:19:44.002Z,6.35
2022-10-18T22:22:10.458Z,6.20
2022-10-18T22:24:36.891Z,6.70
2022-10-18T22:27:03.296Z,6.28
2022-10-18T22:29:29.698Z,6.10
2022-10-18T22:31:56.082Z,6.57
2022-10-18T22:34:26.724Z,6.67
2022-10-18T22:36:53.780Z,7.45
2022-10-18T22:39:20.188Z,7.20
2022-10-18T22:41:46.770Z,6.20
2022-10-18T22:44:14.713Z,6.78
2022-10-18T22:46:42.077Z,6.27
2022-10-18T22:49:08.609Z,5.68
2022-10-18T22:54:06.488Z,6.47
2022-10-18T22:56:33.155Z,6.28
2022-10-18T22:58:59.585Z,6.67
2022-10-18T23:01:25.991Z,7.25
2022-10-18T23:03:58.120Z,6.88
2022-10-18T23:06:27.317Z,7.18
2022-10-18T23:08:56.066Z,6.95
2022-10-18T23:11:23.349Z,6.50
2022-10-18T23:13:49.971Z,7.65
2022-10-18T23:16:17.134Z,7.63
2022-10-18T23:18:43.880Z,7.00
2022-10-18T23:21:12.690Z,7.60
2022-10-18T23:23:41.603Z,6.63
2022-10-18T23:26:20.044Z,8.02
2022-10-18T23:28:48.350Z,7.22
2022-10-18T23:31:27.431Z,9.07
2022-10-18T23:33:56.417Z,8.88
2022-10-18T23:36:23.031Z,7.87
2022-10-18T23:38:50.067Z,8.10
2022-10-18T23:41:17.754Z,7.82
2022-10-18T23:43:45.004Z,7.90
2022-10-18T23:46:12.478Z,8.13
2022-10-18T23:48:38.886Z,8.33
2022-10-18T23:51:06.305Z,9.05
2022-10-18T23:53:33.518Z,8.55
2022-10-18T23:56:02.897Z,8.85
2022-10-18T23:58:31.565Z,8.93
